Time;durP1;ratioP1;P1;durP2;ratioP2;P2;SDS_P1;SDS_P2;PMS_P1;PMS_P2;Temp;Humidity;BMP_temperature;BMP_pressure;BME280_temperature;BME280_humidity;BME280_pressure;Samples;Min_cycle;Max_cycle;Signal;HPM_P1;HPM_P2
2023/05/14 00:02:13;;;;;;;2.92;2.08;;;13.90;99.90;;;;;;4990327;28;20523;-67
2023/05/14 00:04:39;;;;;;;2.55;1.40;;;13.90;99.90;;;;;;4977812;28;20034;-67
2023/05/14 00:07:05;;;;;;;3.00;1.80;;;13.90;99.90;;;;;;4990729;28;20192;-67
2023/05/14 00:09:31;;;;;;;2.47;1.50;;;14.00;99.90;;;;;;4978673;28;20045;-67
2023/05/14 00:11:57;;;;;;;3.20;2.05;;;14.10;99.90;;;;;;4990676;28;20038;-67
2023/05/14 00:14:23;;;;;;;3.10;1.67;;;14.10;99.90;;;;;;4978982;28;20031;-67
2023/05/14 00:16:49;;;;;;;3.17;1.85;;;13.80;99.90;;;;;;4990484;28;20482;-66
2023/05/14 00:19:14;;;;;;;4.63;2.00;;;13.70;99.90;;;;;;4978762;28;20046;-67
2023/05/14 00:21:40;;;;;;;3.95;2.08;;;13.70;99.90;;;;;;4990420;28;20034;-67
2023/05/14 00:24:06;;;;;;;2.78;1.55;;;13.60;99.90;;;;;;4978233;28;20039;-67
2023/05/14 00:26:32;;;;;;;3.08;2.10;;;13.50;99.90;;;;;;4990531;28;20426;-67
2023/05/14 00:28:57;;;;;;;3.38;2.00;;;13.50;99.90;;;;;;4981637;28;20039;-68
2023/05/14 00:31:23;;;;;;;3.33;1.88;;;13.50;99.90;;;;;;4988355;28;20117;-67
2023/05/14 00:33:49;;;;;;;3.17;1.65;;;13.50;99.90;;;;;;4984418;28;20074;-67
2023/05/14 00:36:15;;;;;;;2.63;1.88;;;13.60;99.90;;;;;;4984475;28;20453;-67
2023/05/14 00:38:40;;;;;;;2.92;1.80;;;13.60;99.90;;;;;;4986088;28;20695;-66
2023/05/14 00:41:06;;;;;;;2.75;1.58;;;13.60;99.90;;;;;;4983783;28;20430;-68
2023/05/14 00:43:32;;;;;;;3.10;1.75;;;13.70;99.90;;;;;;4987431;28;20426;-66
2023/05/14 00:45:59;;;;;;;3.10;1.70;;;13.70;99.90;;;;;;4981705;28;20096;-66
2023/05/14 00:48:25;;;;;;;2.28;1.48;;;13.70;99.90;;;;;;4989212;28;20038;-67
2023/05/14 00:50:51;;;;;;;3.03;1.77;;;13.60;99.90;;;;;;4983372;28;20117;-67
2023/05/14 00:53:19;;;;;;;3.00;1.60;;;13.60;99.90;;;;;;4989938;28;20034;-67
2023/05/14 00:55:47;;;;;;;5.15;2.47;;;13.60;99.90;;;;;;4978388;28;20096;-67
2023/05/14 00:58:13;;;;;;;4.28;1.55;;;13.70;99.90;;;;;;4974194;28;20027;-67
2023/05/14 01:00:40;;;;;;;3.38;1.50;;;13.70;99.90;;;;;;4977787;28;20108;-67
2023/05/14 01:03:07;;;;;;;5.47;1.75;;;13.70;99.90;;;;;;4991011;28;20026;-67
2023/05/14 01:06:08;;;;;;;2.50;1.38;;;13.70;99.90;;;;;;4963799;28;20065;-67
2023/05/14 01:09:10;;;;;;;9.23;2.10;;;13.60;99.90;;;;;;4971940;28;20110;-67
2023/05/14 01:12:23;;;;;;;2.92;1.75;;;13.60;99.90;;;;;;4990071;28;20502;-67
2023/05/14 01:15:07;;;;;;;3.80;2.03;;;13.50;99.90;;;;;;4939130;29;20179;-67
2023/05/14 01:17:52;;;;;;;4.57;2.17;;;13.20;99.90;;;;;;4934166;29;20031;-68
2023/05/14 01:20:18;;;;;;;4.80;2.55;;;13.10;99.90;;;;;;4927389;29;20046;-68
2023/05/14 01:22:44;;;;;;;3.00;1.73;;;13.20;99.90;;;;;;4934020;29;20039;-68
2023/05/14 01:25:10;;;;;;;3.92;2.50;;;13.20;99.90;;;;;;4916570;29;20767;-68
2023/05/14 01:28:18;;;;;;;3.97;1.73;;;13.20;99.90;;;;;;4918276;29;20047;-68
2023/05/14 01:31:04;;;;;;;3.22;2.20;;;13.20;99.90;;;;;;4929195;29;20529;-68
2023/05/14 01:33:34;;;;;;;2.28;1.35;;;13.10;99.90;;;;;;4932735;29;20043;-68
2023/05/14 01:36:00;;;;;;;4.60;2.42;;;13.20;99.90;;;;;;4931883;29;20465;-68
2023/05/14 01:38:30;;;;;;;4.53;2.22;;;13.20;99.90;;;;;;4936304;29;20097;-68
2023/05/14 01:40:57;;;;;;;5.63;2.55;;;13.20;99.90;;;;;;4925648;29;20054;-68
2023/05/14 01:43:23;;;;;;;4.95;2.47;;;13.20;99.90;;;;;;4952511;29;20031;-68
2023/05/14 01:45:49;;;;;;;2.95;1.90;;;13.20;99.90;;;;;;4966151;28;20034;-68
2023/05/14 01:48:15;;;;;;;3.88;2.08;;;13.10;99.90;;;;;;4994361;28;20712;-68
2023/05/14 01:50:40;;;;;;;2.40;1.70;;;13.00;99.90;;;;;;4980945;28;20044;-68
2023/05/14 01:53:06;;;;;;;4.50;2.47;;;13.00;99.90;;;;;;4994286;28;20034;-68
2023/05/14 01:55:32;;;;;;;4.25;2.17;;;13.00;99.90;;;;;;4981269;28;20092;-68
2023/05/14 01:57:58;;;;;;;4.45;2.50;;;13.00;99.90;;;;;;4994373;28;20033;-68
2023/05/14 02:00:24;;;;;;;4.15;2.40;;;13.00;99.90;;;;;;4980655;28;20048;-68
2023/05/14 02:02:50;;;;;;;4.35;2.28;;;13.00;99.90;;;;;;4993282;28;20121;-68
2023/05/14 02:05:16;;;;;;;3.28;2.22;;;12.90;99.90;;;;;;4981241;28;20133;-68
2023/05/14 02:07:42;;;;;;;2.97;1.88;;;12.90;99.90;;;;;;4993934;28;20077;-68
2023/05/14 02:10:08;;;;;;;2.90;2.13;;;12.80;99.90;;;;;;4980879;28;20031;-68
2023/05/14 02:12:34;;;;;;;4.45;2.67;;;12.80;99.90;;;;;;4994093;28;20109;-67
2023/05/14 02:15:01;;;;;;;5.63;1.98;;;12.70;99.90;;;;;;4981278;28;20105;-68
2023/05/14 02:17:27;;;;;;;4.03;2.30;;;12.70;99.90;;;;;;4993584;28;20038;-67
2023/05/14 02:19:52;;;;;;;4.15;2.30;;;12.60;99.90;;;;;;4979355;28;20093;-68
2023/05/14 02:22:18;;;;;;;3.97;2.35;;;12.50;99.90;;;;;;4993972;28;20506;-68
2023/05/14 02:24:44;;;;;;;5.22;2.30;;;12.40;99.90;;;;;;4979484;28;20037;-68
2023/05/14 02:27:11;;;;;;;3.28;2.08;;;12.40;99.90;;;;;;4993549;28;20030;-68
2023/05/14 02:29:37;;;;;;;6.20;2.28;;;12.30;99.90;;;;;;4980546;28;20062;-68
2023/05/14 02:32:03;;;;;;;4.03;2.17;;;12.30;99.90;;;;;;4993678;28;20026;-68
2023/05/14 02:34:29;;;;;;;4.50;2.03;;;12.30;99.90;;;;;;4979211;28;20038;-68
2023/05/14 02:36:54;;;;;;;4.03;2.17;;;12.30;99.90;;;;;;4993658;28;20027;-68
2023/05/14 02:39:20;;;;;;;2.92;1.95;;;12.20;99.90;;;;;;4980255;28;20143;-67
2023/05/14 02:41:46;;;;;;;5.85;2.35;;;12.20;99.90;;;;;;4993877;28;20038;-68
2023/05/14 02:44:11;;;;;;;4.00;2.67;;;12.20;99.90;;;;;;4962953;28;20050;-67
2023/05/14 02:46:37;;;;;;;3.92;2.20;;;12.10;99.90;;;;;;4992664;28;20038;-67
2023/05/14 02:49:03;;;;;;;4.97;2.72;;;12.00;99.90;;;;;;4980841;28;20038;-67
2023/05/14 02:51:28;;;;;;;4.45;3.08;;;12.00;99.90;;;;;;4991456;28;20050;-68
2023/05/14 02:53:54;;;;;;;4.72;2.72;;;11.90;99.90;;;;;;4984356;28;20491;-68
2023/05/14 02:56:21;;;;;;;4.20;2.33;;;11.90;99.90;;;;;;4989057;28;20040;-68
2023/05/14 02:58:46;;;;;;;4.35;2.47;;;11.90;99.90;;;;;;4986398;28;20037;-67
2023/05/14 03:01:12;;;;;;;6.25;2.50;;;11.90;99.90;;;;;;4986893;28;20034;-67
2023/05/14 03:03:38;;;;;;;5.32;2.60;;;11.90;99.90;;;;;;4988623;28;20034;-68
2023/05/14 03:06:04;;;;;;;7.60;3.10;;;11.80;99.90;;;;;;4999849;28;20105;-68
2023/05/14 03:08:30;;;;;;;5.63;2.75;;;11.80;99.90;;;;;;4990301;28;20031;-68
2023/05/14 03:10:56;;;;;;;4.75;2.88;;;11.70;99.90;;;;;;4997425;28;20043;-68
2023/05/14 03:13:22;;;;;;;6.55;2.72;;;11.60;99.90;;;;;;4991346;28;20104;-68
2023/05/14 03:15:47;;;;;;;3.75;2.38;;;11.60;99.90;;;;;;4971222;23;20118;-71
2023/05/14 03:18:14;;;;;;;6.88;3.13;;;11.60;99.90;;;;;;4970643;28;20403;-71
2023/05/14 03:20:40;;;;;;;4.60;2.88;;;11.60;99.90;;;;;;4964496;28;20552;-72
2023/05/14 03:23:06;;;;;;;6.35;3.38;;;11.60;99.90;;;;;;4972207;28;20029;-72
2023/05/14 03:25:33;;;;;;;9.48;3.90;;;11.60;99.90;;;;;;4963623;28;20109;-71
2023/05/14 03:27:59;;;;;;;6.50;3.60;;;11.60;99.90;;;;;;4973210;28;20029;-71
2023/05/14 03:30:25;;;;;;;5.93;3.08;;;11.50;99.90;;;;;;4963387;28;20042;-71
2023/05/14 03:32:50;;;;;;;7.40;4.25;;;11.50;99.90;;;;;;4971995;28;20108;-70
2023/05/14 03:35:16;;;;;;;6.30;3.42;;;11.50;99.90;;;;;;4963666;28;20850;-72
2023/05/14 03:37:42;;;;;;;9.68;4.03;;;11.60;99.90;;;;;;4971775;28;20073;-72
2023/05/14 03:40:08;;;;;;;7.78;3.58;;;11.50;99.90;;;;;;4964523;28;20039;-71
2023/05/14 03:42:34;;;;;;;7.63;3.92;;;11.50;99.90;;;;;;4971750;28;20154;-72
2023/05/14 03:45:00;;;;;;;7.93;3.65;;;11.40;99.90;;;;;;4964338;28;20109;-71
2023/05/14 03:47:25;;;;;;;7.63;3.80;;;11.40;99.90;;;;;;4972833;28;20038;-71
2023/05/14 03:49:51;;;;;;;7.72;3.60;;;11.40;99.90;;;;;;4963654;28;20503;-71
2023/05/14 03:52:17;;;;;;;6.75;3.42;;;11.40;99.90;;;;;;4972798;28;20088;-71
2023/05/14 03:54:43;;;;;;;6.53;3.65;;;11.40;99.90;;;;;;4964322;28;20042;-71
2023/05/14 03:57:08;;;;;;;8.55;4.65;;;11.30;99.90;;;;;;4972892;28;20048;-71
2023/05/14 03:59:34;;;;;;;9.80;5.00;;;11.30;99.90;;;;;;4963190;28;20027;-72
2023/05/14 04:02:00;;;;;;;7.32;4.05;;;11.20;99.90;;;;;;4972662;28;20493;-72
2023/05/14 04:04:25;;;;;;;12.13;4.28;;;11.30;99.90;;;;;;4962769;28;20039;-72
2023/05/14 04:06:51;;;;;;;8.18;4.68;;;11.30;99.90;;;;;;4971438;28;20117;-71
2023/05/14 04:09:17;;;;;;;7.53;4.10;;;11.20;99.90;;;;;;4963994;28;20118;-72
2023/05/14 04:11:42;;;;;;;5.57;3.75;;;11.20;99.90;;;;;;4972760;28;20088;-71
2023/05/14 04:14:08;;;;;;;4.80;3.40;;;11.20;99.90;;;;;;4963407;28;20396;-71
2023/05/14 04:16:34;;;;;;;4.80;3.60;;;11.20;99.90;;;;;;4971028;28;20026;-72
2023/05/14 04:19:03;;;;;;;17.60;4.40;;;11.10;99.90;;;;;;4965151;28;20035;-72
2023/05/14 04:21:29;;;;;;;6.85;4.05;;;11.00;99.90;;;;;;4970716;28;20078;-72
2023/05/14 04:23:55;;;;;;;6.43;3.47;;;11.10;99.90;;;;;;4967720;28;20414;-71
2023/05/14 04:26:20;;;;;;;8.32;4.53;;;11.00;99.90;;;;;;4968454;28;20079;-73
2023/05/14 04:28:46;;;;;;;8.43;5.00;;;11.10;99.90;;;;;;4969860;28;20030;-72
2023/05/14 04:31:12;;;;;;;8.43;4.45;;;11.10;99.90;;;;;;4967670;28;20045;-72
2023/05/14 04:33:38;;;;;;;12.40;4.45;;;11.20;99.90;;;;;;4970522;28;20122;-72
2023/05/14 04:36:05;;;;;;;9.60;4.28;;;11.20;99.90;;;;;;4964379;28;20038;-71
2023/05/14 04:38:31;;;;;;;7.60;4.18;;;11.20;99.90;;;;;;4972073;28;20035;-71
2023/05/14 04:40:57;;;;;;;7.45;4.65;;;11.30;99.90;;;;;;4963331;28;20043;-72
2023/05/14 04:43:23;;;;;;;9.35;4.05;;;11.30;99.90;;;;;;4970911;28;20035;-71
2023/05/14 04:45:50;;;;;;;8.68;4.93;;;11.40;99.90;;;;;;4962176;28;20494;-72
2023/05/14 04:48:16;;;;;;;7.35;4.28;;;11.50;99.90;;;;;;4972267;28;20114;-71
2023/05/14 04:50:43;;;;;;;5.10;3.42;;;11.50;99.90;;;;;;4962898;28;20093;-71
2023/05/14 04:53:10;;;;;;;6.40;3.55;;;11.50;99.90;;;;;;4970705;28;20027;-71
2023/05/14 04:55:36;;;;;;;5.13;3.53;;;11.50;99.90;;;;;;4962391;28;20085;-71
2023/05/14 04:58:02;;;;;;;11.23;4.05;;;11.60;99.90;;;;;;4954603;28;20430;-72
2023/05/14 05:00:28;;;;;;;5.78;4.10;;;11.70;99.90;;;;;;4962955;28;20035;-71
2023/05/14 05:02:54;;;;;;;8.65;4.75;;;11.70;99.90;;;;;;4971886;28;20062;-72
2023/05/14 05:05:20;;;;;;;7.00;3.50;;;11.80;99.90;;;;;;4961625;28;20410;-71
2023/05/14 05:07:46;;;;;;;7.10;4.10;;;11.80;99.90;;;;;;4970513;28;20158;-72
2023/05/14 05:10:12;;;;;;;9.30;4.25;;;11.90;99.90;;;;;;4963253;28;20121;-72
2023/05/14 05:12:38;;;;;;;7.70;4.30;;;11.90;99.90;;;;;;4955175;28;20050;-72
2023/05/14 05:15:05;;;;;;;8.40;3.60;;;11.90;99.90;;;;;;4958609;28;20030;-72
2023/05/14 05:17:31;;;;;;;7.45;4.45;;;11.90;99.90;;;;;;4975520;28;20092;-72
2023/05/14 05:19:56;;;;;;;6.40;3.58;;;11.90;99.90;;;;;;4969124;28;20109;-72
2023/05/14 05:22:23;;;;;;;6.88;3.65;;;12.00;99.90;;;;;;4975691;28;20039;-72
2023/05/14 05:24:48;;;;;;;9.48;3.35;;;12.10;99.90;;;;;;4965779;28;20023;-72
2023/05/14 05:27:14;;;;;;;8.85;4.68;;;12.10;99.90;;;;;;4975401;28;20029;-72
2023/05/14 05:29:40;;;;;;;7.68;3.97;;;12.10;99.90;;;;;;4964775;28;20034;-72
2023/05/14 05:32:06;;;;;;;6.72;2.95;;;12.10;99.90;;;;;;4975628;28;20031;-72
2023/05/14 05:34:33;;;;;;;7.13;2.78;;;12.30;99.90;;;;;;4965708;28;20122;-75
2023/05/14 05:36:59;;;;;;;5.45;3.13;;;12.30;99.90;;;;;;4965487;28;20031;-75
2023/05/14 05:39:25;;;;;;;6.90;3.78;;;12.30;99.90;;;;;;4954490;28;20083;-79
2023/05/14 05:41:50;;;;;;;5.22;2.90;;;12.40;99.90;;;;;;4968986;28;20027;-73
2023/05/14 05:44:16;;;;;;;5.22;3.17;;;12.40;99.90;;;;;;4938884;28;20036;-74
2023/05/14 05:46:42;;;;;;;6.10;2.88;;;12.40;99.90;;;;;;4957756;28;20035;-73
2023/05/14 05:49:08;;;;;;;6.80;3.17;;;12.50;99.90;;;;;;4949825;28;20075;-74
2023/05/14 05:51:33;;;;;;;13.52;3.78;;;12.60;99.90;;;;;;4970903;28;20030;-74
2023/05/14 05:53:59;;;;;;;5.88;3.70;;;12.60;99.90;;;;;;4968797;28;20031;-74
2023/05/14 05:56:25;;;;;;;7.15;3.55;;;12.70;99.90;;;;;;4956430;28;20390;-77
2023/05/14 05:58:50;;;;;;;5.93;3.33;;;12.70;99.90;;;;;;4971118;28;20027;-75
2023/05/14 06:01:16;;;;;;;6.70;3.80;;;12.80;99.90;;;;;;4962584;28;20041;-73
2023/05/14 06:03:42;;;;;;;7.78;3.75;;;12.80;99.90;;;;;;4973664;28;20046;-74
2023/05/14 06:06:08;;;;;;;7.75;3.53;;;12.80;99.90;;;;;;4967727;28;20034;-73
2023/05/14 06:08:33;;;;;;;5.85;3.38;;;13.00;99.90;;;;;;4948659;28;20023;-76
2023/05/14 06:10:59;;;;;;;8.48;3.50;;;13.00;99.90;;;;;;4965337;28;20042;-73
2023/05/14 06:13:25;;;;;;;7.75;3.00;;;13.00;99.90;;;;;;4974459;28;20471;-75
2023/05/14 06:15:50;;;;;;;5.80;3.33;;;13.20;99.90;;;;;;4963635;28;20118;-73
2023/05/14 06:18:16;;;;;;;7.18;3.78;;;13.20;99.90;;;;;;4974448;28;20506;-69
2023/05/14 06:20:42;;;;;;;5.75;3.10;;;13.30;99.90;;;;;;4965413;28;20050;-74
2023/05/14 06:23:08;;;;;;;5.97;3.20;;;13.30;99.90;;;;;;4966948;28;20058;-74
2023/05/14 06:25:33;;;;;;;7.03;3.40;;;13.40;99.90;;;;;;4949306;28;20026;-73
2023/05/14 06:27:59;;;;;;;7.85;3.00;;;13.60;99.90;;;;;;4966659;28;20363;-69
2023/05/14 06:30:25;;;;;;;6.90;3.47;;;13.70;99.90;;;;;;4965628;28;20113;-71
2023/05/14 06:32:50;;;;;;;5.40;2.92;;;13.70;99.90;;;;;;4972837;28;20483;-73
2023/05/14 06:35:18;;;;;;;6.70;3.20;;;13.80;99.90;;;;;;4965659;28;20050;-70
2023/05/14 06:37:44;;;;;;;4.78;3.13;;;13.90;99.90;;;;;;4960090;28;20083;-73
2023/05/14 06:40:11;;;;;;;5.40;2.60;;;14.00;99.90;;;;;;4950356;28;20035;-72
2023/05/14 06:42:37;;;;;;;4.95;2.90;;;14.20;99.90;;;;;;4973310;28;20375;-74
2023/05/14 06:45:05;;;;;;;5.97;3.35;;;14.30;99.90;;;;;;4965214;28;20026;-73
2023/05/14 06:47:30;;;;;;;7.13;3.35;;;14.40;99.90;;;;;;4974043;28;20035;-72
2023/05/14 06:49:57;;;;;;;4.95;2.90;;;14.50;99.90;;;;;;4964815;28;20136;-71
2023/05/14 06:52:24;;;;;;;4.78;2.60;;;14.60;99.90;;;;;;4948365;28;20042;-70
2023/05/14 06:54:50;;;;;;;4.50;2.53;;;14.70;99.90;;;;;;4938271;28;20039;-70
2023/05/14 06:57:15;;;;;;;5.35;2.85;;;14.70;99.90;;;;;;4972358;28;20035;-70
2023/05/14 06:59:41;;;;;;;13.70;3.42;;;14.90;99.90;;;;;;4965109;28;20526;-70
2023/05/14 07:02:07;;;;;;;7.80;2.67;;;15.00;99.90;;;;;;4973739;28;20035;-71
2023/05/14 07:04:33;;;;;;;7.03;3.47;;;15.30;99.90;;;;;;4965136;28;20089;-71
2023/05/14 07:06:58;;;;;;;5.93;2.63;;;15.40;99.90;;;;;;4971582;28;20117;-70
2023/05/14 07:09:24;;;;;;;5.13;2.10;;;15.60;99.90;;;;;;4937485;28;20102;-70
2023/05/14 07:11:50;;;;;;;3.60;2.10;;;15.70;99.90;;;;;;4971762;28;20541;-70
2023/05/14 07:14:16;;;;;;;4.63;2.28;;;15.60;99.90;;;;;;4964865;28;20064;-70
2023/05/14 07:16:41;;;;;;;4.55;2.38;;;15.60;99.90;;;;;;4973586;28;20546;-70
2023/05/14 07:19:07;;;;;;;3.85;1.90;;;15.50;99.90;;;;;;4965291;28;20051;-70
2023/05/14 07:21:35;;;;;;;5.40;2.67;;;15.40;99.90;;;;;;4955579;28;20101;-70
2023/05/14 07:24:01;;;;;;;4.93;2.42;;;15.50;99.90;;;;;;4967196;28;20074;-70
2023/05/14 07:26:26;;;;;;;2.97;1.73;;;15.40;99.90;;;;;;4970655;28;20031;-70
2023/05/14 07:28:52;;;;;;;5.95;2.72;;;15.50;99.90;;;;;;4967581;28;20086;-56
2023/05/14 07:31:18;;;;;;;6.00;2.28;;;15.60;99.90;;;;;;4966648;28;20387;-54
2023/05/14 07:33:43;;;;;;;2.70;1.70;;;15.70;99.90;;;;;;4945197;28;20123;-56
2023/05/14 07:36:09;;;;;;;5.75;2.58;;;15.80;99.90;;;;;;4951830;28;20480;-57
2023/05/14 07:38:35;;;;;;;6.38;2.20;;;15.80;99.90;;;;;;4945178;28;20039;-53
2023/05/14 07:41:01;;;;;;;3.95;2.67;;;16.00;99.90;;;;;;4950479;28;20035;-53
2023/05/14 07:43:27;;;;;;;3.75;2.00;;;16.10;99.90;;;;;;4945277;28;20030;-56
2023/05/14 07:45:54;;;;;;;3.75;2.38;;;16.20;99.90;;;;;;4951764;28;20057;-56
2023/05/14 07:48:20;;;;;;;4.95;2.47;;;16.10;99.90;;;;;;4969403;28;20022;-57
2023/05/14 07:50:47;;;;;;;3.78;2.13;;;16.20;99.90;;;;;;4964037;28;20093;-52
2023/05/14 07:53:13;;;;;;;4.72;2.17;;;16.30;99.90;;;;;;4971766;28;20037;-55
2023/05/14 07:55:40;;;;;;;4.50;2.17;;;16.20;99.90;;;;;;4948420;28;20456;-57
2023/05/14 07:58:06;;;;;;;3.15;1.80;;;16.30;99.90;;;;;;4972759;28;20085;-54
2023/05/14 08:00:32;;;;;;;4.57;1.98;;;16.20;99.90;;;;;;4963599;28;20046;-55
2023/05/14 08:02:57;;;;;;;3.63;1.92;;;16.50;99.90;;;;;;4972631;28;20027;-54
2023/05/14 08:05:23;;;;;;;3.72;2.00;;;16.60;99.90;;;;;;4963506;28;20038;-55
2023/05/14 08:07:49;;;;;;;4.93;2.25;;;16.90;99.90;;;;;;4958281;28;20028;-56
2023/05/14 08:10:14;;;;;;;7.25;2.28;;;17.20;99.90;;;;;;4950923;28;20491;-56
2023/05/14 08:12:41;;;;;;;4.00;2.33;;;17.30;99.90;;;;;;4972572;28;20078;-57
2023/05/14 08:15:08;;;;;;;5.72;2.42;;;17.50;99.90;;;;;;4963721;28;20046;-54
2023/05/14 08:17:34;;;;;;;2.85;1.63;;;17.70;99.90;;;;;;4972426;28;20506;-56
2023/05/14 08:20:00;;;;;;;2.50;1.40;;;17.80;99.90;;;;;;4963553;28;20039;-55
2023/05/14 08:22:26;;;;;;;2.33;1.42;;;18.00;99.90;;;;;;4958881;28;20039;-53
2023/05/14 08:24:52;;;;;;;2.80;1.52;;;17.60;99.90;;;;;;4962410;28;20031;-53
2023/05/14 08:27:17;;;;;;;3.72;1.98;;;17.90;99.90;;;;;;4972201;28;20033;-54
2023/05/14 08:29:43;;;;;;;4.18;1.70;;;18.30;99.90;;;;;;4962888;28;20034;-53
2023/05/14 08:32:09;;;;;;;5.03;1.85;;;18.00;99.90;;;;;;4972241;28;20031;-54
2023/05/14 08:34:35;;;;;;;3.00;1.67;;;18.00;99.90;;;;;;4963839;28;20113;-54
2023/05/14 08:37:01;;;;;;;5.68;2.40;;;18.30;99.90;;;;;;4970544;28;20546;-54
2023/05/14 08:39:27;;;;;;;2.92;1.85;;;18.20;99.90;;;;;;4937836;28;20043;-55
2023/05/14 08:41:54;;;;;;;4.88;1.90;;;18.50;99.90;;;;;;4971841;28;20057;-56
2023/05/14 08:44:51;;;;;;;4.25;2.10;;;18.40;99.90;;;;;;4961602;28;20532;-53
2023/05/14 08:47:20;;;;;;;4.30;2.08;;;18.20;99.90;;;;;;4971768;28;20073;-57
2023/05/14 08:49:54;;;;;;;3.00;1.77;;;18.40;99.90;;;;;;4963405;28;20453;-53
2023/05/14 08:52:21;;;;;;;3.28;1.70;;;18.70;99.90;;;;;;4970299;28;20069;-56
2023/05/14 08:54:49;;;;;;;3.10;1.75;;;18.60;99.90;;;;;;4962331;28;20042;-51
2023/05/14 08:57:17;;;;;;;3.55;1.45;;;18.70;99.90;;;;;;4970625;28;20109;-53
2023/05/14 08:59:43;;;;;;;5.38;2.40;;;18.70;99.90;;;;;;4963053;28;20510;-56
2023/05/14 09:02:11;;;;;;;4.25;1.77;;;19.00;99.90;;;;;;4971782;28;20026;-56
2023/05/14 09:04:38;;;;;;;2.72;1.30;;;19.10;99.90;;;;;;4962021;28;20026;-52
2023/05/14 09:07:06;;;;;;;2.55;1.50;;;19.50;99.90;;;;;;4968105;28;20022;-51
2023/05/14 09:09:32;;;;;;;3.67;2.08;;;19.70;99.90;;;;;;4938518;28;20038;-58
2023/05/14 09:11:58;;;;;;;8.50;2.60;;;19.90;99.40;;;;;;4969984;28;20086;-54
2023/05/14 09:16:54;;;;;;;5.53;1.95;;;19.60;99.30;;;;;;4939181;29;20059;-54
2023/05/14 09:19:20;;;;;;;5.47;1.80;;;19.80;99.10;;;;;;4951602;28;20032;-55
2023/05/14 09:21:48;;;;;;;6.65;1.70;;;19.70;97.70;;;;;;4937688;29;20035;-55
2023/05/14 09:24:23;;;;;;;4.78;2.03;;;19.60;97.00;;;;;;4950995;29;20035;-56
2023/05/14 09:26:57;;;;;;;3.70;1.35;;;19.80;97.60;;;;;;4920131;29;20042;-54
2023/05/14 09:29:29;;;;;;;4.53;2.22;;;19.80;98.20;;;;;;4932441;29;20059;-55
2023/05/14 09:31:57;;;;;;;3.28;1.40;;;20.00;99.30;;;;;;4927358;29;20024;-55
2023/05/14 09:34:41;;;;;;;2.83;1.50;;;20.30;99.00;;;;;;4932331;29;20039;-53
2023/05/14 09:37:08;;;;;;;2.75;1.27;;;20.30;98.70;;;;;;4920935;29;20158;-57
2023/05/14 09:39:36;;;;;;;5.15;1.58;;;19.90;98.70;;;;;;4920066;29;20020;-56
2023/05/14 09:42:02;;;;;;;1.35;1.00;;;20.10;99.40;;;;;;4928614;29;20028;-56
2023/05/14 09:44:28;;;;;;;3.20;1.67;;;20.20;99.40;;;;;;4906898;29;20024;-55
2023/05/14 09:46:54;;;;;;;3.05;1.48;;;20.20;98.40;;;;;;4927310;29;20035;-54
2023/05/14 09:49:21;;;;;;;2.90;1.45;;;20.20;98.50;;;;;;4931268;29;20032;-56
2023/05/14 09:51:48;;;;;;;3.35;1.38;;;20.10;97.80;;;;;;4919376;29;20119;-57
2023/05/14 09:54:14;;;;;;;2.72;1.60;;;20.20;98.50;;;;;;4930584;29;20027;-55
2023/05/14 09:56:42;;;;;;;3.20;1.50;;;20.40;98.20;;;;;;4918059;29;20039;-56
2023/05/14 09:59:07;;;;;;;2.95;1.25;;;20.30;98.70;;;;;;4935789;29;20036;-55
2023/05/14 10:01:33;;;;;;;2.60;1.60;;;20.50;98.10;;;;;;4929361;29;20034;-51
2023/05/14 10:04:05;;;;;;;3.70;1.83;;;20.40;98.20;;;;;;4932026;29;20536;-59
2023/05/14 10:06:36;;;;;;;2.75;1.73;;;20.50;98.00;;;;;;4920634;29;20126;-59
2023/05/14 10:09:06;;;;;;;3.28;1.52;;;20.50;97.50;;;;;;4932841;29;20031;-61
2023/05/14 10:11:37;;;;;;;2.28;1.38;;;20.40;97.20;;;;;;4929308;29;20683;-60
2023/05/14 10:14:21;;;;;;;2.22;1.50;;;19.80;98.70;;;;;;4936014;29;20042;-64
2023/05/14 10:16:50;;;;;;;3.13;1.60;;;19.70;98.30;;;;;;4944935;29;20045;-63
2023/05/14 10:19:18;;;;;;;1.98;1.10;;;19.40;98.00;;;;;;4953594;29;20503;-63
2023/05/14 10:21:56;;;;;;;2.13;1.13;;;19.80;98.10;;;;;;4941638;29;20054;-63
2023/05/14 10:24:22;;;;;;;1.80;1.33;;;19.90;98.10;;;;;;4953983;29;20031;-63
2023/05/14 10:26:48;;;;;;;2.70;1.23;;;19.60;98.80;;;;;;4941636;29;20086;-63
2023/05/14 10:29:15;;;;;;;2.35;1.25;;;19.50;99.20;;;;;;4954709;28;20031;-63
2023/05/14 10:31:45;;;;;;;2.75;1.55;;;19.40;98.60;;;;;;4940439;28;20412;-62
2023/05/14 10:34:37;;;;;;;2.47;1.38;;;19.40;99.00;;;;;;4946938;29;20118;-67
2023/05/14 10:37:15;;;;;;;2.50;1.10;;;19.20;98.70;;;;;;4948398;29;20531;-68
2023/05/14 10:39:55;;;;;;;5.07;1.42;;;19.30;98.30;;;;;;4940146;29;20530;-67
2023/05/14 10:42:27;;;;;;;2.80;1.40;;;19.40;98.80;;;;;;4952721;28;20098;-66
2023/05/14 10:44:57;;;;;;;2.63;1.33;;;19.30;99.40;;;;;;4953350;28;20042;-66
2023/05/14 10:47:25;;;;;;;4.63;2.03;;;19.40;98.60;;;;;;4952375;28;20027;-68
2023/05/14 10:49:56;;;;;;;1.40;1.10;;;18.80;99.80;;;;;;4969248;28;20032;-68
2023/05/14 10:52:23;;;;;;;4.40;1.90;;;18.80;99.60;;;;;;4945931;29;20039;-68
2023/05/14 10:54:54;;;;;;;2.50;1.38;;;18.80;99.70;;;;;;4959675;28;20032;-68
2023/05/14 10:57:23;;;;;;;5.15;1.63;;;18.80;99.60;;;;;;4945738;29;20058;-68
2023/05/14 10:59:54;;;;;;;2.42;1.45;;;18.70;99.80;;;;;;4952932;29;20054;-67
2023/05/14 11:02:26;;;;;;;2.58;1.33;;;18.80;99.70;;;;;;4949884;29;20049;-68
2023/05/14 11:05:02;;;;;;;4.90;1.90;;;18.80;99.90;;;;;;4953124;28;20035;-67
2023/05/14 11:07:40;;;;;;;4.07;1.45;;;18.90;99.90;;;;;;4947504;28;20032;-68
2023/05/14 11:10:11;;;;;;;5.05;1.35;;;18.90;99.90;;;;;;4952955;29;20031;-68
2023/05/14 11:12:44;;;;;;;;;;;19.20;99.90;;;;;;4952473;28;20049;-68
2023/05/14 11:15:14;;;;;;;2.22;1.30;;;19.00;99.90;;;;;;4953109;28;19914;-69
2023/05/14 11:17:42;;;;;;;3.00;1.33;;;19.40;99.50;;;;;;4949130;29;20098;-68
2023/05/14 11:20:10;;;;;;;2.97;1.45;;;19.00;99.30;;;;;;4953735;29;20027;-73
2023/05/14 11:22:38;;;;;;;3.33;1.90;;;19.20;99.70;;;;;;4949485;29;20035;-69
2023/05/14 11:25:05;;;;;;;2.78;1.52;;;19.10;98.80;;;;;;4952703;28;20124;-67
2023/05/14 11:27:35;;;;;;;2.10;1.20;;;18.90;99.60;;;;;;4951532;28;20042;-68
2023/05/14 11:30:02;;;;;;;2.80;1.43;;;19.10;99.90;;;;;;4952215;29;20031;-67
2023/05/14 11:32:31;;;;;;;2.05;1.33;;;19.20;99.10;;;;;;4951404;28;20118;-68
2023/05/14 11:34:56;;;;;;;4.55;1.83;;;19.50;98.90;;;;;;4948193;28;20033;-68
2023/05/14 11:37:22;;;;;;;3.28;1.65;;;19.40;98.60;;;;;;4933226;29;20035;-68
2023/05/14 11:39:54;;;;;;;3.55;1.40;;;19.50;98.30;;;;;;4938986;29;20031;-68
2023/05/14 11:42:21;;;;;;;3.05;1.42;;;19.40;98.40;;;;;;4940818;29;20114;-68
2023/05/14 11:44:50;;;;;;;3.80;1.98;;;19.40;98.90;;;;;;4945747;28;20118;-68
2023/05/14 11:47:20;;;;;;;1.85;1.40;;;19.60;98.40;;;;;;4951263;28;20467;-68
2023/05/14 11:49:47;;;;;;;2.20;1.38;;;19.50;98.00;;;;;;4950844;29;20098;-68
2023/05/14 11:52:15;;;;;;;2.35;1.30;;;19.70;97.70;;;;;;4934643;29;20075;-67
2023/05/14 11:54:43;;;;;;;2.78;1.35;;;19.80;98.20;;;;;;4952172;29;20034;-69
2023/05/14 11:57:12;;;;;;;9.68;1.42;;;20.00;97.20;;;;;;4948693;29;20043;-67
2023/05/14 11:59:38;;;;;;;2.55;1.23;;;20.50;97.30;;;;;;4943286;29;20035;-67
2023/05/14 12:02:09;;;;;;;3.28;1.88;;;20.60;97.00;;;;;;4948886;29;20035;-68
2023/05/14 12:04:35;;;;;;;2.80;1.50;;;20.40;97.20;;;;;;4942340;29;20064;-67
2023/05/14 12:07:15;;;;;;;3.30;1.55;;;20.50;97.40;;;;;;4936779;29;20130;-68
2023/05/14 12:09:48;;;;;;;2.38;1.02;;;20.50;97.30;;;;;;4938698;29;20027;-68
2023/05/14 12:12:18;;;;;;;2.05;1.33;;;20.20;97.70;;;;;;4950882;28;20094;-68
2023/05/14 12:14:44;;;;;;;1.75;1.23;;;20.20;97.30;;;;;;4952065;28;20038;-68
2023/05/14 12:17:19;;;;;;;3.53;1.80;;;20.00;97.90;;;;;;4948303;29;20039;-68
2023/05/14 12:19:48;;;;;;;2.90;1.48;;;20.60;97.00;;;;;;4943971;28;20110;-67
2023/05/14 12:22:21;;;;;;;3.17;1.67;;;20.50;96.20;;;;;;4950740;28;20035;-67
2023/05/14 12:24:57;;;;;;;1.65;1.13;;;20.90;95.80;;;;;;4951459;29;20031;-68
2023/05/14 12:27:25;;;;;;;2.40;1.23;;;21.30;94.50;;;;;;4948184;29;20042;-67
2023/05/14 12:29:59;;;;;;;2.35;1.35;;;21.40;94.30;;;;;;4952901;28;20050;-68
2023/05/14 12:32:25;;;;;;;2.25;1.30;;;21.70;94.60;;;;;;4965285;28;20143;-69
2023/05/14 12:34:51;;;;;;;1.33;0.80;;;22.00;94.10;;;;;;4951458;28;20031;-67
2023/05/14 12:37:17;;;;;;;3.72;1.40;;;22.30;93.70;;;;;;4946275;28;20043;-69
2023/05/14 12:39:43;;;;;;;2.38;1.52;;;22.30;92.90;;;;;;4952418;28;20031;-66
2023/05/14 12:42:09;;;;;;;2.10;1.20;;;21.80;92.90;;;;;;4947983;29;20031;-67
2023/05/14 12:44:34;;;;;;;1.88;1.20;;;22.00;93.40;;;;;;4952574;29;20076;-67
2023/05/14 12:47:00;;;;;;;2.05;1.20;;;22.20;92.60;;;;;;4947747;29;20086;-68
2023/05/14 12:49:26;;;;;;;2.47;1.10;;;22.20;93.40;;;;;;4951389;29;20035;-68
2023/05/14 12:51:52;;;;;;;2.35;1.33;;;22.70;92.50;;;;;;4948319;29;20452;-68
2023/05/14 12:54:19;;;;;;;2.80;1.73;;;21.70;93.90;;;;;;4935313;29;20142;-68